createdAt,value
2018-01-22T00:00:17.595Z,70.87
2018-01-22T00:02:48.730Z,70.71
2018-01-22T00:05:19.755Z,70.61
2018-01-22T00:07:50.963Z,70.62
2018-01-22T00:10:22.041Z,70.68
2018-01-22T00:12:53.148Z,70.50
2018-01-22T00:15:24.200Z,70.48
2018-01-22T00:17:55.324Z,70.29
2018-01-22T00:20:26.446Z,69.97
2018-01-22T00:22:57.528Z,69.63
2018-01-22T00:25:28.638Z,69.28
2018-01-22T00:27:59.732Z,68.98
2018-01-22T00:30:30.948Z,68.85
2018-01-22T00:33:02.022Z,68.68
2018-01-22T00:35:33.368Z,68.47
2018-01-22T00:38:04.403Z,68.27
2018-01-22T00:40:35.542Z,68.13
2018-01-22T00:43:06.626Z,67.81
2018-01-22T00:45:37.721Z,67.40
2018-01-22T00:48:08.843Z,67.57
2018-01-22T00:50:39.892Z,67.29
2018-01-22T00:53:11.051Z,67.07
2018-01-22T00:55:42.094Z,67.15
2018-01-22T00:58:13.170Z,67.39
2018-01-22T01:00:44.230Z,67.53
2018-01-22T01:03:15.330Z,67.59
2018-01-22T01:05:46.389Z,67.58
2018-01-22T01:08:17.512Z,67.62
2018-01-22T01:10:48.591Z,67.36
2018-01-22T01:13:19.713Z,67.08
2018-01-22T01:15:50.756Z,67.18
2018-01-22T01:18:21.880Z,67.30
2018-01-22T01:20:52.961Z,67.32
2018-01-22T01:23:24.122Z,67.26
2018-01-22T01:25:55.183Z,67.09
2018-01-22T01:28:26.273Z,67.30
2018-01-22T01:30:57.395Z,67.42
2018-01-22T01:33:28.823Z,67.41
2018-01-22T01:35:59.932Z,67.10
2018-01-22T01:38:31.055Z,67.09
2018-01-22T01:41:02.190Z,66.95
2018-01-22T01:43:33.284Z,66.94
2018-01-22T01:46:04.384Z,66.82
2018-01-22T01:48:35.482Z,66.89
2018-01-22T01:51:06.531Z,67.02
2018-01-22T01:53:37.644Z,66.74
2018-01-22T01:56:08.682Z,66.59
2018-01-22T01:58:39.816Z,66.24
2018-01-22T02:01:10.867Z,66.23
2018-01-22T02:03:41.983Z,66.22
2018-01-22T02:06:13.065Z,65.87
2018-01-22T02:08:44.318Z,65.42
2018-01-22T02:11:15.387Z,65.43
2018-01-22T02:13:46.510Z,65.25
2018-01-22T02:16:17.543Z,65.10
2018-01-22T02:18:48.628Z,64.78
2018-01-22T02:21:19.828Z,64.97
2018-01-22T02:23:50.923Z,65.48
2018-01-22T02:26:22.017Z,66.03
2018-01-22T02:28:53.089Z,66.53
2018-01-22T02:31:24.181Z,66.89
2018-01-22T02:33:55.296Z,66.66
2018-01-22T02:36:26.384Z,66.68
2018-01-22T02:38:57.918Z,66.52
2018-01-22T02:41:29.144Z,66.33
2018-01-22T02:44:00.254Z,66.54
2018-01-22T02:46:31.293Z,66.91
2018-01-22T02:49:02.604Z,66.92
2018-01-22T02:51:33.679Z,66.87
2018-01-22T02:54:04.794Z,66.96
2018-01-22T02:56:35.906Z,67.35
2018-01-22T02:59:07.026Z,67.63
2018-01-22T03:01:38.099Z,68.21
2018-01-22T03:04:09.258Z,68.74
2018-01-22T03:06:40.340Z,68.98
2018-01-22T03:09:11.666Z,68.82
2018-01-22T03:11:42.683Z,68.86
2018-01-22T03:14:13.771Z,69.13
2018-01-22T03:16:44.848Z,69.29
2018-01-22T03:19:15.978Z,69.02
2018-01-22T03:21:47.047Z,69.13
2018-01-22T03:24:18.149Z,69.06
2018-01-22T03:26:49.257Z,69.02
2018-01-22T03:29:20.367Z,68.83
2018-01-22T03:31:51.457Z,69.01
2018-01-22T03:34:22.557Z,68.74
2018-01-22T03:36:53.626Z,68.86
2018-01-22T03:39:24.738Z,69.21
2018-01-22T03:41:55.835Z,69.40
2018-01-22T03:44:26.913Z,69.35
2018-01-22T03:46:58.044Z,69.50
2018-01-22T03:49:29.101Z,69.53
2018-01-22T03:52:00.210Z,69.32
2018-01-22T03:54:31.237Z,69.50
2018-01-22T03:57:02.342Z,69.73
2018-01-22T03:59:33.426Z,69.76
2018-01-22T04:02:04.531Z,69.76
2018-01-22T04:04:35.607Z,69.28
2018-01-22T04:07:06.770Z,69.45
2018-01-22T04:09:38.968Z,69.83
2018-01-22T04:12:10.044Z,70.64
2018-01-22T04:14:41.098Z,70.87
2018-01-22T04:17:12.153Z,70.42
2018-01-22T04:19:43.334Z,70.05
2018-01-22T04:22:14.395Z,70.11
2018-01-22T04:24:45.450Z,69.75
2018-01-22T04:27:16.570Z,69.43
2018-01-22T04:29:47.619Z,69.07
2018-01-22T04:32:18.711Z,68.97
2018-01-22T04:34:49.779Z,68.90
2018-01-22T04:37:20.864Z,68.77
2018-01-22T04:39:51.924Z,68.87
2018-01-22T04:42:23.006Z,68.76
2018-01-22T04:44:54.097Z,68.57
2018-01-22T04:47:25.169Z,68.54
2018-01-22T04:49:56.253Z,68.28
2018-01-22T04:52:27.343Z,68.27
2018-01-22T04:54:58.381Z,68.42
2018-01-22T04:57:29.474Z,68.37
2018-01-22T05:00:00.558Z,68.50
2018-01-22T05:02:31.753Z,68.67
2018-01-22T05:05:03.175Z,68.79
2018-01-22T05:07:34.238Z,68.86
2018-01-22T05:10:05.351Z,68.81
2018-01-22T05:12:36.448Z,68.53
2018-01-22T05:15:07.505Z,68.30
2018-01-22T05:17:38.619Z,68.00
2018-01-22T05:20:09.637Z,67.92
2018-01-22T05:22:40.690Z,68.10
2018-01-22T05:25:11.718Z,68.39
2018-01-22T05:27:42.851Z,68.38
2018-01-22T05:30:13.952Z,68.72
2018-01-22T05:32:44.986Z,68.86
2018-01-22T05:35:16.077Z,68.82
2018-01-22T05:37:47.163Z,69.15
2018-01-22T05:40:18.259Z,69.63
2018-01-22T05:42:49.663Z,69.77
2018-01-22T05:45:20.795Z,69.95
2018-01-22T05:47:51.859Z,70.02
2018-01-22T05:50:22.984Z,70.04
2018-01-22T05:52:54.080Z,70.37
2018-01-22T05:55:25.198Z,70.35
2018-01-22T05:57:56.303Z,70.62
2018-01-22T06:00:27.419Z,70.33
2018-01-22T06:02:58.482Z,70.42
2018-01-22T06:05:29.652Z,70.47
2018-01-22T06:08:00.803Z,70.96
2018-01-22T06:10:31.893Z,70.77
2018-01-22T06:13:03.093Z,70.88
2018-01-22T06:15:34.186Z,70.60
2018-01-22T06:18:05.301Z,70.47
2018-01-22T06:20:36.358Z,70.70
2018-01-22T06:23:07.441Z,70.83
2018-01-22T06:25:38.581Z,70.81
2018-01-22T06:28:09.666Z,71.00
2018-01-22T06:30:40.826Z,71.72
2018-01-22T06:33:11.913Z,71.94
2018-01-22T06:35:43.015Z,71.94
2018-01-22T06:38:14.074Z,71.72
2018-01-22T06:40:45.160Z,72.13
2018-01-22T06:43:16.214Z,72.33
2018-01-22T06:45:47.303Z,71.85
2018-01-22T06:48:18.374Z,71.89
2018-01-22T06:50:49.510Z,72.04
2018-01-22T06:53:20.577Z,72.01
2018-01-22T06:55:51.671Z,72.42
2018-01-22T06:58:22.694Z,72.07
2018-01-22T07:00:53.747Z,72.48
2018-01-22T07:03:24.826Z,72.07
2018-01-22T07:06:03.033Z,71.44
2018-01-22T07:08:34.100Z,71.17
2018-01-22T07:11:05.169Z,70.99
2018-01-22T07:13:36.276Z,70.71
2018-01-22T07:16:07.325Z,70.56
2018-01-22T07:18:38.426Z,70.20
2018-01-22T07:21:09.464Z,70.09
2018-01-22T07:23:40.555Z,69.52
2018-01-22T07:26:12.692Z,69.52
2018-01-22T07:28:43.764Z,69.49
2018-01-22T07:31:14.898Z,68.79
2018-01-22T07:33:45.934Z,68.80
2018-01-22T07:36:17.026Z,68.44
2018-01-22T07:38:48.109Z,68.31
2018-01-22T07:41:19.321Z,68.21
2018-01-22T07:43:50.348Z,67.64
2018-01-22T07:46:21.415Z,67.26
2018-01-22T07:48:52.466Z,67.22
2018-01-22T07:51:23.598Z,66.28
2018-01-22T07:53:54.689Z,66.55
2018-01-22T07:56:25.764Z,65.91
2018-01-22T07:58:56.872Z,65.64
2018-01-22T08:01:27.972Z,65.22
2018-01-22T08:03:59.050Z,65.08
2018-01-22T08:06:30.124Z,65.29
2018-01-22T08:09:01.188Z,64.72
2018-01-22T08:11:32.283Z,64.32
2018-01-22T08:14:03.360Z,63.60
2018-01-22T08:16:34.485Z,63.57
2018-01-22T08:19:05.581Z,62.90
2018-01-22T08:21:36.669Z,62.62
2018-01-22T08:24:07.702Z,62.57
2018-01-22T08:26:38.830Z,62.95
2018-01-22T08:29:09.866Z,63.29
2018-01-22T08:31:41.006Z,63.24
2018-01-22T08:34:12.117Z,63.21
2018-01-22T08:36:43.234Z,63.04
2018-01-22T08:39:14.316Z,62.40
2018-01-22T08:41:45.915Z,62.33
2018-01-22T08:44:17.898Z,62.42
2018-01-22T08:46:48.996Z,62.30
2018-01-22T08:49:20.040Z,61.85
2018-01-22T08:51:51.160Z,62.00
2018-01-22T08:54:22.293Z,61.93
2018-01-22T08:56:53.424Z,61.70
2018-01-22T08:59:24.519Z,61.72
2018-01-22T09:01:55.581Z,61.34
2018-01-22T09:04:27.630Z,61.46
2018-01-22T09:06:58.763Z,61.39
2018-01-22T09:09:29.851Z,62.33
2018-01-22T09:12:00.955Z,63.02
2018-01-22T09:14:32.004Z,62.92
2018-01-22T09:17:03.156Z,62.46
2018-01-22T09:19:34.198Z,62.63
2018-01-22T09:22:06.030Z,62.56
2018-01-22T09:24:37.089Z,62.15
2018-01-22T09:27:08.144Z,61.99
2018-01-22T09:29:39.258Z,61.94
2018-01-22T09:32:10.371Z,61.15
2018-01-22T09:34:41.462Z,61.24
2018-01-22T09:37:12.724Z,60.80
2018-01-22T09:39:43.838Z,59.79
2018-01-22T09:42:14.945Z,59.35
2018-01-22T09:44:46.043Z,58.25
2018-01-22T09:47:17.120Z,58.90
2018-01-22T09:49:48.216Z,59.82
2018-01-22T09:52:19.326Z,60.46
2018-01-22T09:54:50.614Z,60.59
2018-01-22T09:57:21.681Z,60.38
2018-01-22T09:59:52.805Z,60.50
2018-01-22T10:02:23.914Z,60.62
2018-01-22T10:04:55.042Z,60.69
2018-01-22T10:07:26.130Z,60.51
2018-01-22T10:09:57.250Z,60.60
2018-01-22T10:12:28.355Z,60.47
2018-01-22T10:14:59.453Z,60.52
2018-01-22T10:17:30.876Z,60.56
2018-01-22T10:20:02.006Z,60.69
2018-01-22T10:22:33.104Z,61.19
2018-01-22T10:25:04.227Z,60.76
2018-01-22T10:27:35.310Z,59.96
2018-01-22T10:30:06.394Z,59.45
2018-01-22T10:32:37.476Z,59.04
2018-01-22T10:35:08.628Z,58.42
2018-01-22T10:37:39.772Z,57.98
2018-01-22T10:40:10.818Z,57.63
2018-01-22T10:42:41.934Z,57.90
2018-01-22T10:45:13.010Z,58.08
2018-01-22T10:47:44.124Z,58.39
2018-01-22T10:50:15.253Z,58.87
2018-01-22T10:52:46.326Z,59.20
2018-01-22T10:55:17.456Z,58.96
2018-01-22T10:57:48.517Z,58.94
2018-01-22T11:00:19.594Z,58.88
2018-01-22T11:02:50.715Z,59.04
2018-01-22T11:05:21.758Z,58.83
2018-01-22T11:07:52.884Z,58.41
2018-01-22T11:10:24.018Z,58.65
2018-01-22T11:12:55.129Z,58.14
2018-01-22T11:15:32.292Z,58.16
2018-01-22T11:18:03.473Z,58.95
2018-01-22T11:23:10.566Z,59.10
2018-01-22T11:25:41.630Z,59.43
2018-01-22T11:28:12.733Z,59.95
2018-01-22T11:30:43.930Z,60.08
2018-01-22T11:33:15.032Z,59.90
2018-01-22T11:35:46.074Z,59.62
2018-01-22T11:38:17.182Z,59.37
2018-01-22T11:40:48.276Z,59.62
2018-01-22T11:43:19.388Z,59.93
2018-01-22T11:45:50.501Z,59.15
2018-01-22T11:48:21.605Z,59.65
2018-01-22T11:50:52.669Z,59.80
2018-01-22T11:53:23.780Z,59.85
2018-01-22T11:55:54.911Z,60.19
2018-01-22T11:58:25.992Z,60.88
2018-01-22T12:00:57.084Z,62.01
2018-01-22T12:03:28.821Z,62.42
2018-01-22T12:05:59.872Z,62.29
2018-01-22T12:08:30.963Z,61.86
2018-01-22T12:11:02.049Z,61.82
2018-01-22T12:13:33.119Z,60.94
2018-01-22T12:16:04.254Z,61.07
2018-01-22T12:18:35.374Z,61.09
2018-01-22T12:21:06.530Z,61.03
2018-01-22T12:23:37.641Z,61.26
2018-01-22T12:26:08.691Z,60.95
2018-01-22T12:28:39.760Z,60.90
2018-01-22T12:31:10.873Z,61.12
2018-01-22T12:33:41.957Z,61.28
2018-01-22T12:36:13.026Z,61.40
2018-01-22T12:38:44.705Z,62.32
2018-01-22T12:41:15.766Z,62.95
2018-01-22T12:43:46.796Z,63.34
2018-01-22T12:46:17.894Z,63.79
2018-01-22T12:48:49.102Z,63.68
2018-01-22T12:51:20.159Z,63.19
2018-01-22T12:53:51.225Z,62.59
2018-01-22T12:56:22.639Z,61.96
2018-01-22T12:58:53.748Z,61.60
2018-01-22T13:01:24.864Z,61.56
2018-01-22T13:03:55.895Z,61.85
2018-01-22T13:06:26.982Z,62.09
2018-01-22T13:08:58.049Z,62.17
2018-01-22T13:11:29.291Z,62.48
2018-01-22T13:14:00.319Z,62.28
2018-01-22T13:16:31.434Z,61.97
2018-01-22T13:19:02.508Z,62.14
2018-01-22T13:21:33.577Z,61.95
2018-01-22T13:24:04.667Z,61.85
2018-01-22T13:26:35.766Z,62.13
2018-01-22T13:29:06.898Z,62.43
2018-01-22T13:31:38.026Z,62.73
2018-01-22T13:34:09.079Z,64.16
2018-01-22T13:36:40.190Z,63.22
2018-01-22T13:39:11.272Z,62.51
2018-01-22T13:41:42.394Z,63.01
2018-01-22T13:44:13.433Z,63.00
2018-01-22T13:46:44.517Z,62.58
2018-01-22T13:49:15.609Z,62.15
2018-01-22T13:51:46.741Z,62.01
2018-01-22T13:54:17.834Z,61.93
2018-01-22T13:56:48.946Z,61.82
2018-01-22T13:59:20.416Z,61.95
2018-01-22T14:01:51.505Z,62.18
2018-01-22T14:04:22.612Z,61.76
2018-01-22T14:06:53.694Z,61.73
2018-01-22T14:09:24.818Z,61.94
2018-01-22T14:11:55.846Z,61.87
2018-01-22T14:14:26.985Z,61.82
2018-01-22T14:16:58.084Z,61.94
2018-01-22T14:19:30.663Z,62.10
2018-01-22T14:22:01.768Z,62.23
2018-01-22T14:24:32.851Z,62.24
2018-01-22T14:27:03.954Z,62.46
2018-01-22T14:29:34.994Z,62.75
2018-01-22T14:32:06.091Z,62.87
2018-01-22T14:34:37.181Z,63.25
2018-01-22T14:37:08.314Z,63.49
2018-01-22T14:39:39.448Z,63.57
2018-01-22T14:42:10.536Z,64.02
2018-01-22T14:44:41.605Z,64.24
2018-01-22T14:47:12.714Z,64.26
2018-01-22T14:49:43.812Z,64.46
2018-01-22T14:52:14.844Z,64.93
2018-01-22T14:54:45.921Z,64.84
2018-01-22T14:57:16.959Z,65.00
2018-01-22T14:59:48.185Z,65.27
2018-01-22T15:02:19.231Z,65.23
2018-01-22T15:04:50.369Z,65.16
2018-01-22T15:07:21.455Z,65.25
2018-01-22T15:09:52.527Z,65.33
2018-01-22T15:12:23.597Z,65.40
2018-01-22T15:14:54.745Z,65.23
2018-01-22T15:17:25.847Z,65.11
2018-01-22T15:19:57.005Z,65.42
2018-01-22T15:22:28.146Z,65.63
2018-01-22T15:24:59.326Z,65.86
2018-01-22T15:27:30.450Z,66.05
2018-01-22T15:30:01.572Z,66.18
2018-01-22T15:32:32.635Z,66.06
2018-01-22T15:35:03.727Z,66.00
2018-01-22T15:37:34.907Z,66.35
2018-01-22T15:40:06.027Z,66.52
2018-01-22T15:42:37.139Z,66.83
2018-01-22T15:45:08.218Z,67.06
2018-01-22T15:47:39.307Z,67.06
2018-01-22T15:50:10.413Z,67.17
2018-01-22T15:52:41.547Z,67.01
2018-01-22T15:55:12.644Z,67.07
2018-01-22T15:57:43.772Z,67.39
2018-01-22T16:00:14.959Z,67.48
2018-01-22T16:02:46.052Z,67.40
2018-01-22T16:05:17.158Z,67.42
2018-01-22T16:07:48.292Z,67.22
2018-01-22T16:10:19.372Z,67.12
2018-01-22T16:12:50.509Z,67.18
2018-01-22T16:15:21.575Z,68.00
2018-01-22T16:17:52.703Z,68.34
2018-01-22T16:20:23.860Z,68.93
2018-01-22T16:22:54.953Z,69.01
2018-01-22T16:25:26.086Z,68.68
2018-01-22T16:27:57.192Z,68.36
2018-01-22T16:30:28.304Z,68.55
2018-01-22T16:32:59.343Z,68.43
2018-01-22T16:35:30.417Z,68.10
2018-01-22T16:38:01.572Z,67.88
2018-01-22T16:40:32.631Z,67.73
2018-01-22T16:43:03.814Z,67.55
2018-01-22T16:45:34.882Z,67.44
2018-01-22T16:48:05.979Z,67.39
2018-01-22T16:50:37.061Z,67.28
2018-01-22T16:53:08.795Z,67.20
2018-01-22T16:55:39.903Z,67.58
2018-01-22T16:58:10.988Z,68.04
2018-01-22T17:00:42.073Z,68.34
2018-01-22T17:03:13.128Z,68.73
2018-01-22T17:05:44.316Z,68.71
2018-01-22T17:08:15.400Z,68.66
2018-01-22T17:10:47.278Z,68.45
2018-01-22T17:13:18.347Z,68.42
2018-01-22T17:15:49.461Z,68.39
2018-01-22T17:18:20.501Z,68.30
2018-01-22T17:20:52.948Z,68.26
2018-01-22T17:23:24.043Z,68.18
2018-01-22T17:25:55.122Z,68.20
2018-01-22T17:28:26.175Z,67.85
2018-01-22T17:30:57.310Z,67.72
2018-01-22T17:33:28.409Z,67.49
2018-01-22T17:35:59.525Z,67.38
2018-01-22T17:38:30.599Z,67.03
2018-01-22T17:41:01.709Z,66.69
2018-01-22T17:43:32.840Z,66.72
2018-01-22T17:46:03.938Z,66.83
2018-01-22T17:48:35.191Z,66.80
2018-01-22T17:51:06.288Z,67.07
2018-01-22T17:53:37.344Z,66.90
2018-01-22T17:56:08.428Z,66.74
2018-01-22T17:58:39.693Z,66.83
2018-01-22T18:01:10.826Z,67.11
2018-01-22T18:03:41.864Z,66.96
2018-01-22T18:06:13.025Z,67.11
2018-01-22T18:08:44.102Z,67.26
2018-01-22T18:11:15.208Z,67.13
2018-01-22T18:13:46.273Z,67.14
2018-01-22T18:16:17.366Z,67.23
2018-01-22T18:18:48.471Z,67.60
2018-01-22T18:21:19.586Z,67.75
2018-01-22T18:23:50.678Z,67.87
2018-01-22T18:26:21.778Z,67.61
2018-01-22T18:28:52.799Z,67.81
2018-01-22T18:31:23.916Z,67.99
2018-01-22T18:33:54.957Z,68.38
2018-01-22T18:36:26.049Z,68.67
2018-01-22T18:38:58.398Z,68.61
2018-01-22T18:41:29.464Z,68.40
2018-01-22T18:44:00.569Z,68.31
2018-01-22T18:46:31.673Z,67.99
2018-01-22T18:49:02.730Z,67.59
2018-01-22T18:51:33.776Z,67.57
2018-01-22T18:54:04.824Z,67.53
2018-01-22T18:56:35.926Z,67.61
2018-01-22T18:59:07.034Z,67.65
2018-01-22T19:01:45.153Z,67.69
2018-01-22T19:04:16.233Z,67.85
2018-01-22T19:06:47.664Z,67.82
2018-01-22T19:09:18.768Z,67.81
2018-01-22T19:11:49.885Z,67.78
2018-01-22T19:14:21.022Z,67.63
2018-01-22T19:16:52.110Z,67.60
2018-01-22T19:19:23.202Z,67.64
2018-01-22T19:21:54.280Z,67.71
2018-01-22T19:24:25.392Z,67.78
2018-01-22T19:26:56.464Z,67.86
2018-01-22T19:29:27.518Z,68.07
2018-01-22T19:31:58.583Z,68.27
2018-01-22T19:34:29.655Z,68.37
2018-01-22T19:37:00.757Z,68.46
2018-01-22T19:39:31.793Z,68.35
2018-01-22T19:42:02.946Z,68.45
2018-01-22T19:44:33.980Z,68.29
2018-01-22T19:47:05.081Z,68.34
2018-01-22T19:49:36.162Z,68.53
2018-01-22T19:52:07.255Z,68.50
2018-01-22T19:54:38.356Z,68.57
2018-01-22T19:57:09.456Z,68.73
2018-01-22T19:59:40.559Z,68.80
2018-01-22T20:02:11.647Z,69.04
2018-01-22T20:04:42.711Z,69.14
2018-01-22T20:07:13.865Z,69.29
2018-01-22T20:09:45.004Z,69.23
2018-01-22T20:12:16.074Z,69.11
2018-01-22T20:14:47.107Z,69.12
2018-01-22T20:17:18.410Z,68.98
2018-01-22T20:19:49.487Z,68.87
2018-01-22T20:22:20.561Z,68.97
2018-01-22T20:24:51.673Z,69.00
2018-01-22T20:27:22.728Z,69.06
2018-01-22T20:29:53.806Z,69.18
2018-01-22T20:32:24.892Z,69.45
2018-01-22T20:34:55.984Z,69.54
2018-01-22T20:37:27.101Z,69.66
2018-01-22T20:39:58.171Z,69.74
2018-01-22T20:42:29.246Z,69.75
2018-01-22T20:45:00.308Z,69.71
2018-01-22T20:47:31.531Z,69.55
2018-01-22T20:50:02.632Z,69.41
2018-01-22T20:55:01.220Z,69.63
2018-01-22T20:57:32.314Z,69.82
2018-01-22T21:00:03.422Z,69.97
2018-01-22T21:02:34.481Z,70.12
2018-01-22T21:05:05.527Z,70.50
2018-01-22T21:07:36.585Z,70.66
2018-01-22T21:10:07.654Z,70.74
2018-01-22T21:12:38.714Z,70.97
2018-01-22T21:15:09.773Z,71.02
2018-01-22T21:17:40.841Z,71.08
2018-01-22T21:20:11.946Z,71.07
2018-01-22T21:22:43.033Z,71.55
2018-01-22T21:25:15.913Z,71.53
2018-01-22T21:27:46.935Z,71.44
2018-01-22T21:30:18.040Z,71.41
2018-01-22T21:32:49.105Z,71.37
2018-01-22T21:35:20.212Z,71.21
2018-01-22T21:37:51.258Z,71.17
2018-01-22T21:40:22.334Z,71.20
2018-01-22T21:42:53.390Z,71.18
2018-01-22T21:45:24.503Z,71.37
2018-01-22T21:47:56.367Z,71.63
2018-01-22T21:50:27.653Z,71.81
2018-01-22T21:52:58.723Z,71.86
2018-01-22T21:55:29.839Z,72.06
2018-01-22T21:58:00.933Z,72.23
2018-01-22T22:00:31.997Z,72.68
2018-01-22T22:03:03.112Z,72.72
2018-01-22T22:05:34.182Z,72.80
2018-01-22T22:08:05.296Z,72.52
2018-01-22T22:10:36.372Z,72.39
2018-01-22T22:13:07.446Z,72.44
2018-01-22T22:15:38.591Z,72.26
2018-01-22T22:18:09.663Z,71.91
2018-01-22T22:20:40.783Z,71.91
2018-01-22T22:23:11.876Z,71.71
2018-01-22T22:25:42.972Z,72.02
2018-01-22T22:28:14.024Z,72.22
2018-01-22T22:30:45.129Z,72.25
2018-01-22T22:33:16.197Z,72.42
2018-01-22T22:35:47.319Z,72.65
2018-01-22T22:38:18.397Z,72.93
2018-01-22T22:40:49.514Z,73.12
2018-01-22T22:43:20.604Z,73.34
2018-01-22T22:45:51.670Z,73.40
2018-01-22T22:48:22.763Z,73.29
2018-01-22T22:50:53.894Z,73.42
2018-01-22T22:53:24.941Z,73.51
2018-01-22T22:55:55.990Z,73.63
2018-01-22T22:58:27.369Z,74.02
2018-01-22T23:00:58.428Z,74.33
2018-01-22T23:03:29.508Z,74.39
2018-01-22T23:06:00.554Z,73.86
2018-01-22T23:08:31.702Z,73.54
2018-01-22T23:11:02.755Z,73.30
2018-01-22T23:13:33.857Z,73.03
2018-01-22T23:16:04.914Z,72.66
2018-01-22T23:18:35.975Z,72.50
2018-01-22T23:21:07.083Z,72.51
2018-01-22T23:23:38.140Z,72.66
2018-01-22T23:26:09.402Z,72.93
2018-01-22T23:28:40.417Z,72.93
2018-01-22T23:31:11.503Z,72.89
2018-01-22T23:33:42.585Z,73.07
2018-01-22T23:36:13.664Z,73.22
2018-01-22T23:38:44.676Z,73.44
2018-01-22T23:41:15.753Z,73.34
2018-01-22T23:43:53.834Z,73.49
2018-01-22T23:46:24.887Z,73.75
2018-01-22T23:48:55.951Z,73.67
2018-01-22T23:51:26.997Z,73.61
2018-01-22T23:53:58.129Z,73.50
2018-01-22T23:56:29.163Z,73.71
2018-01-22T23:59:00.257Z,73.81
